Time;durP1;ratioP1;P1;durP2;ratioP2;P2;SDS_P1;SDS_P2;PMS_P1;PMS_P2;Temp;Humidity;BMP_temperature;BMP_pressure;BME280_temperature;BME280_humidity;BME280_pressure;Samples;Min_cycle;Max_cycle;Signal;HPM_P1;HPM_P2
2022/05/26 00:01:05;;;;;;;3.03;2.83;;;;;;;10.53;93.36;100702.22;5046499;28;20041;-79
2022/05/26 00:03:33;;;;;;;3.10;2.90;;;;;;;10.52;93.64;100699.63;5032640;28;20436;-79
2022/05/26 00:06:00;;;;;;;3.67;2.88;;;;;;;10.46;94.49;100690.03;5045329;28;20041;-79
2022/05/26 00:08:27;;;;;;;3.60;3.30;;;;;;;10.47;95.09;100689.13;5024078;28;20046;-80
2022/05/26 00:10:56;;;;;;;3.08;2.88;;;;;;;10.42;96.11;100691.88;5015838;28;20044;-80
2022/05/26 00:13:23;;;;;;;3.53;2.80;;;;;;;10.46;95.90;100692.66;5000081;28;20042;-80
2022/05/26 00:15:50;;;;;;;3.35;3.05;;;;;;;10.43;96.56;100692.75;5033176;28;20045;-79
2022/05/26 00:18:17;;;;;;;2.78;2.58;;;;;;;10.43;96.47;100688.31;5018716;28;20049;-79
2022/05/26 00:20:44;;;;;;;3.10;2.70;;;;;;;10.46;96.31;100692.66;5052197;28;20045;-80
2022/05/26 00:23:12;;;;;;;2.92;2.63;;;;;;;10.48;96.47;100680.28;5052145;28;20091;-79
2022/05/26 00:25:39;;;;;;;3.83;2.88;;;;;;;10.53;96.43;100682.88;5036756;28;20051;-80
2022/05/26 00:28:07;;;;;;;2.90;2.70;;;;;;;10.53;96.56;100677.56;5034968;28;20123;-80
2022/05/26 00:30:34;;;;;;;3.10;2.80;;;;;;;10.50;97.04;100680.25;5042873;28;20038;-80
2022/05/26 00:33:00;;;;;;;3.10;2.90;;;;;;;10.51;97.24;100680.25;5015787;28;20045;-78
2022/05/26 00:35:29;;;;;;;3.72;2.90;;;;;;;10.51;97.50;100679.34;5032389;28;20052;-81
2022/05/26 00:37:56;;;;;;;2.75;2.50;;;;;;;10.54;97.40;100681.97;5027005;28;20041;-79
2022/05/26 00:40:26;;;;;;;3.38;2.65;;;;;;;10.55;96.55;100681.06;5039567;28;20087;-80
2022/05/26 00:42:56;;;;;;;2.80;2.60;;;;;;;10.60;94.98;100679.19;5016974;28;20041;-79
2022/05/26 00:45:25;;;;;;;2.65;2.45;;;;;;;10.58;94.98;100676.56;5018049;28;20140;-79
2022/05/26 00:47:52;;;;;;;3.17;2.80;;;;;;;10.64;94.56;100681.72;5016578;28;20041;-79
2022/05/26 00:50:27;;;;;;;3.13;2.83;;;;;;;10.62;95.09;100678.25;5014644;28;20076;-79
2022/05/26 00:53:08;;;;;;;3.40;2.80;;;;;;;10.74;95.15;100676.25;5027658;28;20056;-79
2022/05/26 00:55:48;;;;;;;2.80;2.60;;;;;;;10.77;95.23;100677.09;5002568;28;20045;-79
2022/05/26 00:58:28;;;;;;;2.85;2.65;;;;;;;10.85;94.48;100688.34;5035340;28;20033;-78
2022/05/26 01:00:57;;;;;;;2.70;2.50;;;;;;;10.92;93.93;100683.78;5017068;28;20493;-79
2022/05/26 01:03:31;;;;;;;2.58;2.03;;;;;;;11.02;93.12;100685.34;5018729;28;20037;-79
2022/05/26 01:06:03;;;;;;;2.22;2.03;;;;;;;11.14;92.57;100687.72;5018516;28;20029;-81
2022/05/26 01:08:40;;;;;;;2.40;2.20;;;;;;;11.30;89.86;100684.72;5016040;28;20088;-79
2022/05/26 01:11:07;;;;;;;3.40;2.10;;;;;;;11.43;87.88;100678.22;5013216;28;20041;-79
2022/05/26 01:13:49;;;;;;;2.72;2.22;;;;;;;11.56;86.28;100682.34;5025854;28;20099;-78
2022/05/26 01:16:43;;;;;;;3.00;2.10;;;;;;;11.65;85.35;100683.88;5000770;28;20065;-79
2022/05/26 01:19:16;;;;;;;2.72;1.80;;;;;;;11.84;82.91;100680.75;5015211;28;20064;-79
2022/05/26 01:21:54;;;;;;;2.33;1.70;;;;;;;11.93;82.17;100676.16;5031610;28;20045;-80
2022/05/26 01:25:02;;;;;;;2.58;1.88;;;;;;;12.14;80.66;100672.94;5012610;28;20052;-79
2022/05/26 01:27:35;;;;;;;2.10;1.65;;;;;;;12.30;77.49;100679.56;5002433;28;20165;-79
2022/05/26 01:30:24;;;;;;;2.30;1.90;;;;;;;12.50;76.26;100667.53;5026964;28;20088;-79
2022/05/26 01:33:06;;;;;;;2.88;2.03;;;;;;;12.68;74.24;100659.94;5013312;28;20045;-80
2022/05/26 01:35:41;;;;;;;2.75;1.95;;;;;;;12.78;74.84;100654.34;5045673;28;20486;-79
2022/05/26 01:38:20;;;;;;;1.70;1.60;;;;;;;12.80;74.23;100665.81;4999380;28;20392;-79
2022/05/26 01:41:06;;;;;;;2.33;1.60;;;;;;;12.85;73.68;100656.78;5016662;28;20045;-80
2022/05/26 01:43:48;;;;;;;2.63;1.95;;;;;;;12.96;72.34;100660.00;5019881;28;20041;-77
2022/05/26 01:46:38;;;;;;;2.55;1.60;;;;;;;13.02;71.95;100655.41;5028207;28;20045;-78
2022/05/26 01:49:22;;;;;;;2.55;1.50;;;;;;;13.26;70.21;100665.28;5017959;28;20059;-80
2022/05/26 01:52:08;;;;;;;2.22;1.42;;;;;;;13.42;68.96;100647.97;5020102;28;20065;-80
2022/05/26 01:54:37;;;;;;;1.80;1.50;;;;;;;13.45;69.19;100666.47;5054766;28;20053;-79
2022/05/26 01:57:11;;;;;;;3.03;1.20;;;;;;;13.47;68.15;100667.28;5054695;28;20048;-80
2022/05/26 01:59:39;;;;;;;3.38;1.50;;;;;;;13.56;66.86;100660.81;5038575;28;20044;-78
2022/05/26 02:02:11;;;;;;;2.97;1.40;;;;;;;13.69;66.76;100658.59;5037544;28;20045;-80
2022/05/26 02:04:42;;;;;;;2.88;1.45;;;;;;;13.72;65.84;100656.72;5035418;28;20044;-79
2022/05/26 02:07:41;;;;;;;2.42;1.55;;;;;;;13.71;66.34;100657.66;5036211;28;20049;-79
2022/05/26 02:10:15;;;;;;;2.10;1.30;;;;;;;13.77;66.06;100653.91;5021040;28;20434;-78
2022/05/26 02:12:46;;;;;;;1.63;1.40;;;;;;;13.75;66.00;100658.41;5030597;28;20544;-79
2022/05/26 02:15:20;;;;;;;1.63;1.52;;;;;;;13.69;66.43;100663.91;5020820;28;20049;-78
2022/05/26 02:17:51;;;;;;;3.05;1.48;;;;;;;13.73;66.57;100654.94;5035844;28;20041;-77
2022/05/26 02:20:26;;;;;;;1.80;1.25;;;;;;;13.79;66.59;100655.59;5004145;28;20045;-79
2022/05/26 02:23:02;;;;;;;2.60;1.45;;;;;;;13.71;67.10;100655.00;5013774;28;20040;-79
2022/05/26 02:25:29;;;;;;;2.78;1.25;;;;;;;13.72;67.04;100656.72;5028530;28;20041;-78
2022/05/26 02:27:57;;;;;;;2.33;1.33;;;;;;;13.67;67.40;100649.81;5034739;28;20472;-78
2022/05/26 02:30:27;;;;;;;2.35;1.40;;;;;;;13.58;67.53;100652.78;5028246;28;20048;-78
2022/05/26 02:32:54;;;;;;;3.10;1.33;;;;;;;13.56;67.88;100644.88;5016727;28;20033;-78
2022/05/26 02:35:30;;;;;;;1.92;1.20;;;;;;;13.72;66.82;100647.91;5020970;28;20559;-78
2022/05/26 02:38:00;;;;;;;2.78;1.30;;;;;;;13.76;66.82;100652.16;5018366;28;20481;-78
2022/05/26 02:40:30;;;;;;;5.22;1.38;;;;;;;13.79;66.56;100660.03;5033932;28;20068;-78
2022/05/26 02:42:59;;;;;;;1.75;1.20;;;;;;;13.83;66.92;100658.16;5018764;28;20049;-77
2022/05/26 02:45:50;;;;;;;2.08;1.30;;;;;;;13.95;65.93;100666.53;5020572;28;20041;-77
2022/05/26 02:48:46;;;;;;;2.28;1.35;;;;;;;14.01;65.84;100657.50;5050663;28;20509;-78
2022/05/26 02:51:37;;;;;;;2.70;1.27;;;;;;;14.11;65.56;100661.56;5043296;28;20060;-77
2022/05/26 02:54:12;;;;;;;1.80;1.45;;;;;;;14.18;65.35;100659.56;5029830;28;20049;-78
2022/05/26 02:56:51;;;;;;;2.63;1.63;;;;;;;14.20;65.02;100655.06;5037567;28;20055;-77
2022/05/26 02:59:24;;;;;;;2.00;1.58;;;;;;;14.29;65.07;100652.06;5037036;28;20083;-77
2022/05/26 03:02:01;;;;;;;2.28;1.75;;;;;;;14.37;64.84;100650.00;5051736;28;20080;-78
2022/05/26 03:04:32;;;;;;;2.70;1.70;;;;;;;14.38;64.81;100649.13;5017177;28;20048;-79
2022/05/26 03:07:01;;;;;;;2.95;1.30;;;;;;;14.38;65.17;100657.09;5035305;28;20834;-77
2022/05/26 03:09:32;;;;;;;2.50;1.40;;;;;;;14.42;64.65;100661.34;5013196;28;20037;-77
2022/05/26 03:11:59;;;;;;;1.40;1.17;;;;;;;14.43;64.86;100655.13;5058915;28;20041;-79
2022/05/26 03:14:26;;;;;;;1.52;1.10;;;;;;;14.35;65.22;100651.88;4998978;28;20044;-78
2022/05/26 03:16:54;;;;;;;4.20;1.80;;;;;;;14.35;65.21;100651.88;5000149;28;20045;-78
2022/05/26 03:19:23;;;;;;;2.90;1.30;;;;;;;14.35;65.90;100651.88;5031893;28;20029;-79
2022/05/26 03:21:50;;;;;;;1.88;1.27;;;;;;;14.36;65.47;100653.59;5036702;28;20533;-78
2022/05/26 03:24:17;;;;;;;2.10;1.58;;;;;;;14.39;65.54;100649.97;5039327;28;20040;-78
2022/05/26 03:26:43;;;;;;;2.83;1.17;;;;;;;14.36;65.60;100653.59;5017367;28;20099;-78
2022/05/26 03:29:10;;;;;;;3.75;1.30;;;;;;;14.35;66.18;100659.84;5031585;28;20040;-78
2022/05/26 03:31:36;;;;;;;1.50;1.10;;;;;;;14.31;65.57;100653.78;5008412;28;20036;-77
2022/05/26 03:42:20;;;;;;;2.50;1.42;;;;;;;14.39;65.28;100661.47;5025833;28;20038;-78
2022/05/26 03:44:47;;;;;;;3.95;1.63;;;;;;;14.30;65.64;100664.47;5012627;28;20607;-77
2022/05/26 03:47:13;;;;;;;2.67;1.50;;;;;;;14.36;65.94;100657.13;5003430;28;20049;-78
2022/05/26 03:49:40;;;;;;;3.55;1.30;;;;;;;14.27;66.22;100661.91;4996145;28;20038;-78
2022/05/26 03:52:07;;;;;;;5.43;1.55;;;;;;;14.30;66.65;100660.03;5014774;28;20041;-78
2022/05/26 03:54:34;;;;;;;2.03;1.70;;;;;;;14.34;66.91;100658.97;5063836;28;20033;-78
2022/05/26 03:57:03;;;;;;;2.45;1.70;;;;;;;14.19;66.78;100662.16;5016930;28;20041;-77
2022/05/26 03:59:34;;;;;;;2.60;1.20;;;;;;;14.12;67.89;100660.66;5015513;28;20040;-78
2022/05/26 04:02:01;;;;;;;1.95;1.40;;;;;;;14.11;68.23;100668.69;5032083;28;20128;-78
2022/05/26 04:04:28;;;;;;;2.05;1.38;;;;;;;14.24;68.35;100664.69;5015140;28;20048;-78
2022/05/26 04:06:55;;;;;;;2.25;1.30;;;;;;;14.23;68.43;100670.91;5015305;28;20699;-77
2022/05/26 04:09:22;;;;;;;2.63;1.40;;;;;;;14.26;67.90;100666.34;5030745;28;20041;-77
2022/05/26 04:11:48;;;;;;;1.98;1.60;;;;;;;14.33;67.82;100667.00;5032481;28;20049;-77
2022/05/26 04:14:15;;;;;;;2.78;1.20;;;;;;;14.31;68.42;100668.84;5030471;28;20052;-78
2022/05/26 04:16:42;;;;;;;2.97;1.70;;;;;;;14.35;68.71;100678.44;5016664;28;20041;-77
2022/05/26 04:19:10;;;;;;;1.23;1.10;;;;;;;14.47;68.78;100667.41;5021608;28;20041;-78
2022/05/26 04:22:14;;;;;;;3.42;1.30;;;;;;;14.63;67.82;100673.06;5048100;28;20052;-77
2022/05/26 04:24:23;;;;;;;2.70;1.58;;;;;;;14.76;67.39;100679.63;5033025;28;20037;-77
2022/05/26 04:26:49;;;;;;;2.47;1.20;;;;;;;14.81;67.82;100672.34;5029460;28;20514;-77
2022/05/26 04:29:16;;;;;;;7.25;2.08;;;;;;;14.91;66.67;100679.06;5029819;28;20033;-76
2022/05/26 04:31:43;;;;;;;1.90;1.40;;;;;;;14.88;67.71;100678.28;5027033;28;20044;-78
2022/05/26 04:34:09;;;;;;;2.03;1.30;;;;;;;14.81;67.43;100683.00;5032450;28;20449;-77
2022/05/26 04:36:36;;;;;;;3.22;1.70;;;;;;;14.74;67.49;100680.63;5035955;28;20048;-77
2022/05/26 04:39:02;;;;;;;1.73;1.50;;;;;;;14.79;68.20;100671.53;5034990;28;20417;-77
2022/05/26 04:41:29;;;;;;;2.90;1.50;;;;;;;14.94;67.21;100672.75;5032157;28;20441;-78
2022/05/26 04:43:56;;;;;;;1.58;1.40;;;;;;;15.05;67.27;100664.34;5041357;28;20079;-78
2022/05/26 04:46:22;;;;;;;3.15;1.38;;;;;;;15.05;68.52;100667.91;5007020;28;20494;-77
2022/05/26 04:48:49;;;;;;;2.30;1.58;;;;;;;15.05;68.65;100659.00;5020768;28;20042;-78
2022/05/26 04:51:16;;;;;;;1.52;1.42;;;;;;;14.99;68.42;100664.59;4988374;28;20405;-78
2022/05/26 04:53:47;;;;;;;3.42;1.50;;;;;;;14.94;69.13;100670.09;5031032;28;20041;-77
2022/05/26 04:56:14;;;;;;;3.58;1.50;;;;;;;14.93;69.29;100676.34;5006848;28;20052;-78
2022/05/26 04:58:41;;;;;;;1.95;1.60;;;;;;;14.99;68.52;100676.09;5007663;28;20052;-77
2022/05/26 05:01:15;;;;;;;4.38;1.67;;;;;;;15.09;68.06;100687.25;5042966;28;20513;-78
2022/05/26 05:03:42;;;;;;;3.03;1.60;;;;;;;15.27;66.25;100691.84;5014651;28;20494;-78
2022/05/26 05:06:09;;;;;;;3.42;1.45;;;;;;;15.41;66.23;100683.34;5039819;28;20584;-79
2022/05/26 05:08:36;;;;;;;1.70;1.48;;;;;;;15.45;66.87;100684.94;5028226;28;20049;-79
2022/05/26 05:11:02;;;;;;;2.35;1.40;;;;;;;15.47;66.12;100697.28;5029059;28;20545;-79
2022/05/26 05:13:29;;;;;;;3.25;1.40;;;;;;;15.49;64.87;100684.75;5059518;28;20037;-78
2022/05/26 05:16:01;;;;;;;3.53;1.58;;;;;;;15.56;65.09;100681.84;5020406;28;20052;-78
2022/05/26 05:18:28;;;;;;;2.08;1.58;;;;;;;15.66;65.33;100683.25;5016725;28;20042;-78
2022/05/26 05:20:57;;;;;;;2.00;1.52;;;;;;;15.85;65.32;100694.88;5036432;28;20080;-78
2022/05/26 05:23:24;;;;;;;3.22;1.52;;;;;;;15.91;65.25;100691.94;5052431;28;20092;-78
2022/05/26 05:25:52;;;;;;;3.00;1.58;;;;;;;15.79;64.83;100692.44;5028541;28;20461;-78
2022/05/26 05:28:25;;;;;;;3.97;1.90;;;;;;;15.69;65.99;100694.63;5012478;28;20049;-78
2022/05/26 05:30:59;;;;;;;2.33;1.75;;;;;;;15.63;66.33;100691.34;5021815;28;20033;-78
2022/05/26 05:33:35;;;;;;;3.35;1.80;;;;;;;15.60;67.88;100694.09;5028908;28;20418;-78
2022/05/26 05:36:11;;;;;;;1.90;1.30;;;;;;;15.72;68.15;100699.84;5038022;28;20108;-78
2022/05/26 05:38:38;;;;;;;2.53;1.58;;;;;;;15.81;67.15;100687.03;5056672;28;20070;-78
2022/05/26 05:41:06;;;;;;;3.67;1.90;;;;;;;15.76;67.00;100692.59;5025724;28;20041;-79
2022/05/26 05:43:34;;;;;;;3.25;1.60;;;;;;;15.94;67.75;100693.59;5011179;28;20487;-78
2022/05/26 05:46:01;;;;;;;2.15;1.73;;;;;;;16.09;67.42;100684.09;5022735;28;20107;-78
2022/05/26 05:48:28;;;;;;;4.93;2.03;;;;;;;16.17;67.24;100688.19;5038751;28;20280;-78
2022/05/26 05:50:55;;;;;;;2.42;1.50;;;;;;;16.16;67.13;100690.91;5025462;28;20041;-77
2022/05/26 05:53:22;;;;;;;3.17;1.52;;;;;;;16.16;66.24;100697.09;5039313;28;20068;-79
2022/05/26 05:55:48;;;;;;;2.40;1.85;;;;;;;16.12;66.87;100692.81;5027182;28;20664;-78
2022/05/26 05:58:15;;;;;;;2.88;1.55;;;;;;;16.11;66.73;100693.75;5006868;28;20091;-77
2022/05/26 06:00:42;;;;;;;4.45;1.88;;;;;;;16.20;66.39;100700.50;5040731;28;20040;-79
2022/05/26 06:03:08;;;;;;;4.75;1.83;;;;;;;16.19;67.55;100702.28;5006343;28;20041;-78
2022/05/26 06:05:36;;;;;;;3.13;1.65;;;;;;;16.20;68.00;100708.50;5043468;28;20501;-78
2022/05/26 06:08:03;;;;;;;2.78;1.77;;;;;;;16.13;68.77;100699.88;5022282;28;20041;-78
2022/05/26 06:10:31;;;;;;;3.42;1.77;;;;;;;16.15;69.48;100692.72;5007531;28;20076;-78
2022/05/26 06:12:58;;;;;;;16.10;2.97;;;;;;;16.13;69.48;100694.56;5007672;28;20037;-77
2022/05/26 06:15:25;;;;;;;1.95;1.70;;;;;;;16.03;69.81;100707.41;5019857;28;20053;-78
2022/05/26 06:17:51;;;;;;;2.67;1.95;;;;;;;16.06;70.94;100711.75;5022242;28;20494;-77
2022/05/26 06:20:18;;;;;;;2.55;1.85;;;;;;;16.07;70.91;100701.97;5025881;28;20440;-79
2022/05/26 06:22:46;;;;;;;2.85;1.95;;;;;;;16.18;70.68;100708.56;5044303;28;20044;-79
2022/05/26 06:25:15;;;;;;;3.70;1.80;;;;;;;16.30;70.38;100712.47;5022509;28;20033;-79
2022/05/26 06:30:30;;;;;;;3.90;1.95;;;;;;;16.85;69.79;100721.63;5022052;28;20091;-78
2022/05/26 06:38:32;;;;;;;4.35;2.67;;;;;;;17.32;68.70;100733.69;5026567;28;20029;-79
2022/05/26 06:42:05;;;;;;;6.05;2.00;;;;;;;17.05;70.07;100727.84;5022141;28;20068;-80
2022/05/26 06:43:45;;;;;;;2.45;2.08;;;;;;;16.86;70.68;100727.81;5023765;28;20057;-79
2022/05/26 06:46:12;;;;;;;5.00;2.60;;;;;;;16.64;71.77;100729.69;5021858;28;20041;-79
2022/05/26 06:48:38;;;;;;;2.70;2.30;;;;;;;16.56;73.51;100719.34;5055166;28;20044;-79
2022/05/26 06:51:05;;;;;;;3.47;2.40;;;;;;;16.50;75.02;100723.16;5038444;28;20040;-79
2022/05/26 06:53:32;;;;;;;4.85;2.58;;;;;;;16.51;79.33;100727.56;5013297;28;20098;-80
2022/05/26 06:55:59;;;;;;;3.83;2.20;;;;;;;16.48;77.60;100726.81;5025445;28;20041;-78
2022/05/26 06:58:26;;;;;;;4.65;2.40;;;;;;;16.44;78.35;100730.56;5033597;28;20041;-78
2022/05/26 07:00:53;;;;;;;2.95;2.20;;;;;;;16.55;79.80;100741.63;5021359;28;20037;-79
2022/05/26 07:03:20;;;;;;;3.17;2.67;;;;;;;16.71;79.65;100740.03;5017430;28;20072;-79
2022/05/26 07:05:47;;;;;;;21.20;4.15;;;;;;;16.99;80.50;100733.47;5035291;28;20091;-78
2022/05/26 07:08:13;;;;;;;5.05;2.55;;;;;;;17.00;77.25;100737.88;5031485;28;20052;-79
2022/05/26 07:10:40;;;;;;;17.45;6.13;;;;;;;17.23;76.05;100739.47;5033760;28;20120;-80
2022/05/26 07:13:07;;;;;;;3.58;2.28;;;;;;;17.28;75.39;100738.31;5018246;28;20095;-78
2022/05/26 07:15:33;;;;;;;2.95;2.05;;;;;;;17.27;75.53;100743.75;5014536;28;20048;-78
2022/05/26 07:18:03;;;;;;;3.15;2.20;;;;;;;17.28;75.42;100742.81;5050758;28;20033;-78
2022/05/26 07:20:30;;;;;;;3.20;1.80;;;;;;;17.10;73.39;100748.06;5036544;28;20067;-78
2022/05/26 07:22:57;;;;;;;2.92;1.90;;;;;;;17.11;74.84;100747.13;5008288;28;20048;-78
2022/05/26 07:25:24;;;;;;;4.88;1.83;;;;;;;17.26;74.60;100750.88;5053393;28;20040;-79
2022/05/26 07:27:50;;;;;;;10.23;2.45;;;;;;;17.39;71.59;100754.69;5011489;28;20045;-79
2022/05/26 07:30:17;;;;;;;2.70;1.80;;;;;;;17.38;72.45;100752.09;5032555;28;20037;-79
2022/05/26 07:32:44;;;;;;;2.10;1.50;;;;;;;17.36;72.03;100759.31;5016841;28;20510;-78
2022/05/26 07:35:10;;;;;;;2.83;1.65;;;;;;;17.54;71.55;100765.59;5001368;28;20041;-77
2022/05/26 07:43:15;;;;;;;4.50;2.40;;;;;;;17.47;69.91;100786.38;5034492;28;20036;-78
2022/05/26 07:45:42;;;;;;;3.72;1.67;;;;;;;17.48;70.36;100773.91;5030027;28;20076;-77
2022/05/26 07:48:08;;;;;;;3.05;1.50;;;;;;;17.94;68.37;100783.28;5044747;28;20046;-79
2022/05/26 07:50:35;;;;;;;1.75;1.55;;;;;;;18.41;67.00;100783.56;5033538;28;20097;-79
2022/05/26 07:53:02;;;;;;;2.58;1.60;;;;;;;18.91;65.27;100785.47;5024324;28;20040;-79
2022/05/26 07:55:28;;;;;;;2.50;1.58;;;;;;;18.95;62.25;100784.38;5014641;28;20041;-79
2022/05/26 07:57:56;;;;;;;2.70;1.60;;;;;;;19.12;63.54;100786.16;5019060;28;20059;-79
2022/05/26 08:00:23;;;;;;;2.55;1.83;;;;;;;19.16;61.69;100765.41;5041245;28;20064;-78
2022/05/26 08:02:50;;;;;;;2.60;1.70;;;;;;;19.51;59.87;100769.72;5032113;28;20525;-78
2022/05/26 08:05:17;;;;;;;5.35;1.60;;;;;;;19.89;59.38;100756.84;5038175;28;20040;-79
2022/05/26 08:07:44;;;;;;;3.67;1.48;;;;;;;20.02;58.00;100766.88;5019152;28;20052;-78
2022/05/26 08:10:11;;;;;;;3.08;1.45;;;;;;;20.37;56.63;100770.16;5027963;28;20034;-78
2022/05/26 08:12:38;;;;;;;2.85;1.50;;;;;;;20.21;55.05;100773.75;5004525;28;20049;-77
2022/05/26 08:15:05;;;;;;;3.92;1.73;;;;;;;20.17;56.77;100774.00;5034259;28;20040;-78
2022/05/26 08:17:33;;;;;;;2.25;1.50;;;;;;;20.06;56.57;100776.44;5043239;28;20052;-79
2022/05/26 08:20:11;;;;;;;2.97;1.20;;;;;;;19.85;58.30;100773.19;5026953;28;20402;-78
2022/05/26 08:22:53;;;;;;;2.15;1.50;;;;;;;19.53;58.50;100788.38;5031704;28;20137;-78
2022/05/26 08:25:20;;;;;;;3.78;1.75;;;;;;;19.64;58.22;100802.94;5044397;28;20061;-79
2022/05/26 08:27:47;;;;;;;2.78;1.42;;;;;;;19.43;59.40;100801.44;5048989;28;20047;-78
2022/05/26 08:30:13;;;;;;;3.65;1.50;;;;;;;19.64;58.38;100794.03;5029469;28;20056;-78
2022/05/26 08:32:41;;;;;;;4.43;1.38;;;;;;;19.89;58.50;100791.69;5010313;28;20057;-78
2022/05/26 08:35:08;;;;;;;2.47;1.20;;;;;;;20.40;57.04;100789.59;5052406;28;20035;-78
2022/05/26 08:37:35;;;;;;;2.88;1.05;;;;;;;20.80;56.52;100788.13;5033392;28;20054;-77
2022/05/26 08:40:04;;;;;;;3.47;1.17;;;;;;;20.93;54.70;100790.03;5036191;28;20052;-78
2022/05/26 08:42:33;;;;;;;1.05;0.93;;;;;;;21.13;53.63;100795.06;5009010;28;20102;-78
2022/05/26 08:45:05;;;;;;;2.63;1.23;;;;;;;20.76;54.35;100791.94;5033204;28;20049;-76
2022/05/26 08:47:36;;;;;;;1.33;1.10;;;;;;;20.47;55.69;100804.44;5023409;28;20041;-79
2022/05/26 08:50:16;;;;;;;2.55;1.30;;;;;;;19.95;55.43;100804.75;5025868;28;20067;-78
2022/05/26 08:52:47;;;;;;;2.10;1.00;;;;;;;19.78;56.58;100801.31;5027063;28;20509;-78
2022/05/26 08:55:21;;;;;;;1.92;1.40;;;;;;;19.84;57.07;100812.56;5030484;28;20059;-78
2022/05/26 08:58:06;;;;;;;1.70;1.42;;;;;;;19.39;56.73;100816.78;5000524;28;20040;-78
2022/05/26 09:00:37;;;;;;;2.80;1.30;;;;;;;19.22;59.17;100822.19;5027406;28;20128;-78
2022/05/26 09:03:21;;;;;;;1.77;1.10;;;;;;;19.85;59.09;100821.47;5008060;28;20084;-78
2022/05/26 09:05:52;;;;;;;3.08;1.27;;;;;;;20.45;55.69;100802.81;5017761;28;20136;-78
2022/05/26 09:13:54;;;;;;;2.70;1.65;;;;;;;22.38;50.78;100784.28;5018595;28;20044;-77
2022/05/26 09:16:21;;;;;;;2.30;1.23;;;;;;;22.22;48.56;100796.19;5023147;28;20140;-78
2022/05/26 09:19:09;;;;;;;2.30;1.20;;;;;;;21.70;49.18;100799.56;5030518;28;20049;-79
2022/05/26 09:21:37;;;;;;;2.33;1.30;;;;;;;20.69;51.35;100804.03;5034556;28;20230;-78
2022/05/26 09:24:25;;;;;;;2.05;1.45;;;;;;;20.18;53.95;100808.81;5018066;28;20045;-79
2022/05/26 09:27:02;;;;;;;2.97;1.30;;;;;;;19.55;53.90;100818.63;5016715;28;20091;-79
2022/05/26 09:29:35;;;;;;;2.60;1.80;;;;;;;19.16;54.53;100821.66;5019653;28;20048;-77
2022/05/26 09:32:03;;;;;;;3.22;1.30;;;;;;;18.83;56.50;100827.84;5018696;28;20068;-77
2022/05/26 09:35:06;;;;;;;3.58;1.30;;;;;;;18.59;57.52;100842.47;5016592;28;20048;-78
2022/05/26 09:37:44;;;;;;;2.38;1.48;;;;;;;18.47;57.28;100835.91;5014087;28;20045;-78
2022/05/26 09:40:30;;;;;;;3.55;1.83;;;;;;;18.59;57.28;100842.47;5040436;28;20087;-78
2022/05/26 09:43:06;;;;;;;3.72;1.40;;;;;;;18.96;56.38;100846.81;5017638;28;20410;-78
2022/05/26 09:45:42;;;;;;;2.80;1.25;;;;;;;18.98;55.67;100840.41;4994068;28;20056;-78
2022/05/26 09:48:26;;;;;;;3.15;1.77;;;;;;;19.03;55.83;100843.72;5015998;28;20037;-79
2022/05/26 09:51:12;;;;;;;7.40;1.92;;;;;;;18.89;54.38;100842.72;5033006;28;20406;-79
2022/05/26 09:53:44;;;;;;;2.95;1.63;;;;;;;18.59;54.54;100845.16;5030183;28;20047;-78
2022/05/26 09:56:13;;;;;;;2.53;1.48;;;;;;;18.40;54.93;100839.81;5015169;28;20052;-78
2022/05/26 09:58:42;;;;;;;2.58;1.40;;;;;;;18.58;55.65;100854.94;5013621;28;20041;-79
2022/05/26 10:01:32;;;;;;;2.95;1.30;;;;;;;18.63;55.61;100857.41;5012294;23;20053;-80
2022/05/26 10:04:22;;;;;;;2.15;1.23;;;;;;;18.74;54.46;100849.72;4987609;28;20049;-81
2022/05/26 10:06:57;;;;;;;2.55;1.20;;;;;;;18.79;55.40;100853.03;4997438;28;20141;-80
2022/05/26 10:09:32;;;;;;;3.80;1.60;;;;;;;19.13;54.53;100839.63;4989949;28;20718;-79
2022/05/26 10:12:02;;;;;;;3.50;1.40;;;;;;;19.52;54.08;100841.13;4998573;28;20379;-80
2022/05/26 10:14:33;;;;;;;8.68;2.63;;;;;;;19.71;52.92;100846.34;5017904;28;20060;-80
2022/05/26 10:17:07;;;;;;;1.90;1.45;;;;;;;20.15;52.54;100834.91;5012786;28;20396;-80
2022/05/26 10:19:38;;;;;;;3.33;1.80;;;;;;;20.20;51.80;100844.44;5052623;28;20044;-79
2022/05/26 10:22:14;;;;;;;11.63;1.80;;;;;;;20.08;47.72;100823.69;5016262;28;20037;-82
2022/05/26 10:25:06;;;;;;;3.72;1.67;;;;;;;19.61;48.75;100856.72;5018108;28;20132;-81
2022/05/26 10:28:02;;;;;;;2.33;1.45;;;;;;;19.70;48.62;100851.81;5045449;28;20617;-80
2022/05/26 10:30:57;;;;;;;4.55;1.50;;;;;;;19.77;48.62;100853.19;5007585;28;20048;-85
2022/05/26 10:33:48;;;;;;;10.98;2.25;;;;;;;19.33;48.64;100857.28;5019476;28;20046;-82
2022/05/26 10:36:22;;;;;;;2.38;1.30;;;;;;;19.17;50.19;100853.72;5021584;28;20042;-82
2022/05/26 10:39:05;;;;;;;2.08;1.48;;;;;;;19.08;50.58;100863.09;5021218;28;20051;-79
2022/05/26 10:41:40;;;;;;;3.55;1.50;;;;;;;18.94;50.90;100868.31;5026512;28;20045;-79
2022/05/26 10:44:20;;;;;;;2.72;1.55;;;;;;;19.08;52.03;100860.41;5016934;28;20045;-80
2022/05/26 10:46:56;;;;;;;2.70;1.70;;;;;;;19.29;52.15;100870.94;5030834;28;20040;-79
2022/05/26 10:49:32;;;;;;;2.20;1.50;;;;;;;19.25;51.51;100858.66;5022300;28;20592;-79
2022/05/26 10:52:06;;;;;;;4.20;1.85;;;;;;;19.77;52.04;100863.91;5003352;28;20038;-80
2022/05/26 10:54:39;;;;;;;1.90;1.25;;;;;;;20.43;48.97;100861.00;5026869;28;20532;-79
2022/05/26 10:57:43;;;;;;;6.18;2.10;;;;;;;20.96;48.62;100855.19;5051497;28;20036;-81
2022/05/26 11:00:15;;;;;;;3.35;1.88;;;;;;;21.83;44.80;100871.28;5036008;28;20041;-80
2022/05/26 11:02:58;;;;;;;2.95;1.55;;;;;;;22.17;44.45;100844.91;4999723;28;20052;-78
2022/05/26 11:05:36;;;;;;;4.55;2.17;;;;;;;22.54;43.93;100845.16;5002961;28;20045;-78
2022/05/26 11:08:27;;;;;;;2.88;1.50;;;;;;;22.56;42.68;100841.41;5034161;28;20045;-77
2022/05/26 11:10:57;;;;;;;3.13;2.00;;;;;;;21.46;44.14;100861.13;5040892;28;20083;-78
2022/05/26 11:13:33;;;;;;;4.97;1.67;;;;;;;21.72;45.28;100849.59;5021718;28;20172;-80
2022/05/26 11:19:26;;;;;;;7.07;2.38;;;;;;;22.43;42.21;100849.41;5019536;28;20112;-80
2022/05/26 11:21:54;;;;;;;4.07;1.85;;;;;;;22.09;42.93;100850.78;4999126;28;20045;-79
2022/05/26 11:24:22;;;;;;;2.92;1.65;;;;;;;21.79;43.63;100859.00;5013739;28;20045;-81
2022/05/26 11:27:03;;;;;;;4.50;1.63;;;;;;;21.15;45.06;100854.94;4990391;28;20041;-79
2022/05/26 11:29:45;;;;;;;2.38;1.80;;;;;;;21.33;44.36;100848.44;5009708;28;20525;-81
2022/05/26 11:36:07;;;;;;;3.08;1.90;;;;;;;21.73;44.76;100853.16;5041555;28;20044;-79
2022/05/26 11:38:18;;;;;;;5.45;2.17;;;;;;;21.89;42.79;100835.91;5029038;28;20857;-78
2022/05/26 11:41:00;;;;;;;5.03;2.05;;;;;;;22.32;42.99;100860.03;5000572;28;20052;-79
2022/05/26 11:43:45;;;;;;;8.80;2.20;;;;;;;22.67;42.33;100849.59;5018791;28;20044;-78
2022/05/26 11:46:46;;;;;;;12.10;2.92;;;;;;;23.07;40.83;100843.34;4995145;28;20486;-80
2022/05/26 11:49:44;;;;;;;8.05;2.03;;;;;;;22.75;41.12;100833.78;5005458;28;20112;-79
2022/05/26 11:52:24;;;;;;;6.20;2.58;;;;;;;22.46;41.14;100838.47;4998528;28;20057;-80
2022/05/26 11:55:06;;;;;;;4.68;2.17;;;;;;;22.64;42.31;100851.66;5000527;28;20037;-78
2022/05/26 11:57:32;;;;;;;4.28;2.00;;;;;;;22.38;40.55;100840.81;5016672;28;20106;-77
2022/05/26 12:00:15;;;;;;;16.20;3.60;;;;;;;22.62;40.54;100840.13;5006408;28;19941;-78
2022/05/26 12:02:47;;;;;;;209.63;26.55;;;;;;;22.87;39.36;100820.47;5008480;28;20407;-77
2022/05/26 12:05:29;;;;;;;5.95;2.05;;;;;;;22.97;39.02;100835.91;5003647;28;20045;-78
2022/05/26 12:07:58;;;;;;;4.68;1.92;;;;;;;22.22;39.50;100844.63;5006675;28;20052;-78
2022/05/26 12:10:27;;;;;;;6.63;2.40;;;;;;;21.35;41.91;100840.28;4980257;28;20515;-79
2022/05/26 12:13:19;;;;;;;3.65;1.95;;;;;;;20.93;42.60;100833.00;4996447;28;20041;-79
2022/05/26 12:16:18;;;;;;;4.13;2.65;;;;;;;20.59;43.88;100844.91;5019615;28;20041;-78
2022/05/26 12:18:48;;;;;;;4.55;2.30;;;;;;;20.32;43.46;100855.41;4995695;28;20053;-78
2022/05/26 12:21:37;;;;;;;5.65;1.90;;;;;;;20.35;44.52;100857.94;5012251;28;20052;-78
2022/05/26 12:24:32;;;;;;;20.73;3.92;;;;;;;20.74;42.99;100855.59;4993440;28;20120;-78